Time;durP1;ratioP1;P1;durP2;ratioP2;P2;SDS_P1;SDS_P2;PMS_P1;PMS_P2;Temp;Humidity;BMP_temperature;BMP_pressure;BME280_temperature;BME280_humidity;BME280_pressure;Samples;Min_cycle;Max_cycle;Signal;HPM_P1;HPM_P2
2023/08/31 00:00:09;;;;;;;3.95;2.30;;;14.70;99.90;;;;;;5031451;28;20057;-49
2023/08/31 00:02:35;;;;;;;4.70;2.80;;;14.70;99.90;;;;;;5031327;28;20065;-49
2023/08/31 00:05:01;;;;;;;3.10;2.78;;;14.60;99.90;;;;;;5030949;28;20072;-48
2023/08/31 00:07:27;;;;;;;5.07;2.65;;;14.60;99.90;;;;;;5031702;28;20035;-49
2023/08/31 00:09:52;;;;;;;3.85;3.03;;;14.60;99.90;;;;;;5047848;28;20033;-51
2023/08/31 00:12:18;;;;;;;3.10;2.50;;;14.60;99.90;;;;;;5046788;28;20075;-52
2023/08/31 00:14:43;;;;;;;6.13;2.78;;;14.60;99.90;;;;;;5045898;28;20021;-50
2023/08/31 00:17:09;;;;;;;2.47;2.20;;;14.50;99.90;;;;;;5045766;28;20481;-52
2023/08/31 00:19:35;;;;;;;4.22;2.50;;;14.50;99.90;;;;;;5048091;28;20477;-52
2023/08/31 00:22:00;;;;;;;4.97;3.13;;;14.50;99.90;;;;;;5047641;28;20404;-51
2023/08/31 00:24:31;;;;;;;3.67;2.88;;;14.40;99.90;;;;;;5047530;28;20022;-48
2023/08/31 00:27:06;;;;;;;9.20;2.60;;;14.40;99.90;;;;;;5089117;28;20304;-50
2023/08/31 00:29:32;;;;;;;15.95;4.13;;;14.40;99.90;;;;;;5070615;28;21154;-51
2023/08/31 00:31:57;;;;;;;3.15;2.85;;;14.40;99.90;;;;;;5070888;28;20056;-47
2023/08/31 00:34:23;;;;;;;3.75;2.67;;;14.30;99.90;;;;;;5071118;28;20024;-47
2023/08/31 00:36:48;;;;;;;4.68;2.50;;;14.30;99.90;;;;;;5070774;28;20480;-46
2023/08/31 00:39:14;;;;;;;4.65;2.75;;;14.30;99.90;;;;;;5070837;28;20115;-45
2023/08/31 00:41:40;;;;;;;3.22;2.92;;;14.40;99.90;;;;;;5070568;28;20021;-45
2023/08/31 00:44:06;;;;;;;7.32;2.63;;;14.40;99.90;;;;;;5070774;28;20407;-49
2023/08/31 00:46:32;;;;;;;3.78;2.17;;;14.40;99.90;;;;;;5070802;28;20027;-51
2023/08/31 00:48:58;;;;;;;3.15;2.75;;;14.40;99.90;;;;;;5070476;28;20021;-51
2023/08/31 00:51:24;;;;;;;3.20;2.63;;;14.40;99.90;;;;;;5070402;28;20335;-47
2023/08/31 00:53:53;;;;;;;5.07;2.40;;;14.40;99.90;;;;;;5070555;28;20016;-52
2023/08/31 00:56:19;;;;;;;4.95;3.10;;;14.40;99.90;;;;;;5070286;28;20078;-51
2023/08/31 00:58:45;;;;;;;3.80;3.22;;;14.40;99.90;;;;;;5070490;28;20450;-49
2023/08/31 01:01:16;;;;;;;3.60;3.17;;;14.40;99.90;;;;;;5069997;28;20031;-53
2023/08/31 01:03:54;;;;;;;5.88;3.28;;;14.30;99.90;;;;;;5070341;28;20448;-52
2023/08/31 01:06:56;;;;;;;5.47;2.90;;;14.30;99.90;;;;;;5069982;28;20032;-52
2023/08/31 01:09:36;;;;;;;5.50;3.60;;;14.30;99.90;;;;;;4989636;28;20038;-48
2023/08/31 01:12:18;;;;;;;6.55;3.22;;;14.20;99.90;;;;;;5061610;28;20098;-48
2023/08/31 01:15:08;;;;;;;3.05;2.83;;;14.20;99.90;;;;;;5070006;28;20028;-50
2023/08/31 01:17:42;;;;;;;10.45;3.63;;;14.20;99.90;;;;;;5069902;28;20167;-52
2023/08/31 01:20:09;;;;;;;7.85;4.57;;;14.20;99.90;;;;;;5069926;28;20017;-50
2023/08/31 01:22:42;;;;;;;3.78;3.13;;;14.20;99.90;;;;;;5069819;28;20020;-49
2023/08/31 01:25:09;;;;;;;7.63;3.72;;;14.10;99.90;;;;;;5069348;28;20028;-51
2023/08/31 01:27:36;;;;;;;6.53;3.40;;;14.10;99.90;;;;;;5069714;28;20025;-49
2023/08/31 01:30:03;;;;;;;4.05;3.45;;;14.10;99.90;;;;;;5069534;28;20020;-52
2023/08/31 01:32:29;;;;;;;4.68;4.15;;;14.00;99.90;;;;;;5069569;28;20311;-51
2023/08/31 01:34:57;;;;;;;4.18;3.28;;;14.00;99.90;;;;;;5069520;28;20030;-48
2023/08/31 01:38:01;;;;;;;4.50;3.50;;;14.00;99.90;;;;;;5062004;28;20395;-52
2023/08/31 01:40:40;;;;;;;6.10;4.50;;;14.00;99.90;;;;;;5056148;28;20017;-52
2023/08/31 01:43:07;;;;;;;9.23;3.50;;;14.00;99.90;;;;;;5074078;28;20021;-51
2023/08/31 01:45:34;;;;;;;5.18;3.80;;;13.90;99.90;;;;;;5056004;28;20052;-49
2023/08/31 01:47:59;;;;;;;6.68;3.65;;;13.90;99.90;;;;;;5056076;28;20396;-49
2023/08/31 01:50:25;;;;;;;5.80;4.05;;;13.90;99.90;;;;;;5055853;28;20036;-49
2023/08/31 01:52:55;;;;;;;7.10;3.67;;;14.00;99.90;;;;;;5055893;28;20507;-50
2023/08/31 01:55:21;;;;;;;7.00;4.38;;;13.80;99.90;;;;;;5056291;28;20031;-52
2023/08/31 01:57:47;;;;;;;7.82;3.80;;;13.80;99.90;;;;;;5055889;28;20048;-50
2023/08/31 02:00:15;;;;;;;5.70;3.78;;;13.80;99.90;;;;;;5055882;28;20458;-50
2023/08/31 02:02:41;;;;;;;6.68;3.53;;;13.80;99.90;;;;;;5055632;28;20111;-51
2023/08/31 02:05:07;;;;;;;10.73;3.50;;;13.80;99.90;;;;;;5055762;28;20033;-50
2023/08/31 02:07:33;;;;;;;7.63;4.00;;;13.80;99.90;;;;;;5055376;28;20111;-48
2023/08/31 02:09:58;;;;;;;5.07;3.15;;;13.80;99.90;;;;;;5055561;28;20529;-49
2023/08/31 02:12:24;;;;;;;8.20;4.25;;;13.80;99.90;;;;;;5055571;28;20021;-51
2023/08/31 02:14:49;;;;;;;11.52;4.18;;;13.80;99.90;;;;;;5055527;28;20048;-48
2023/08/31 02:17:15;;;;;;;8.60;4.05;;;13.80;99.90;;;;;;5055540;28;20102;-51
2023/08/31 02:19:40;;;;;;;6.35;3.75;;;13.80;99.90;;;;;;5055379;28;20024;-49
2023/08/31 02:22:06;;;;;;;4.38;3.80;;;13.70;99.90;;;;;;5055298;28;20021;-48
2023/08/31 02:24:32;;;;;;;6.47;4.63;;;13.80;99.90;;;;;;5055376;28;20024;-53
2023/08/31 02:26:57;;;;;;;5.88;5.00;;;13.80;99.90;;;;;;5055206;28;20166;-50
2023/08/31 02:29:23;;;;;;;4.28;3.53;;;13.80;99.90;;;;;;5055153;28;20082;-49
2023/08/31 02:31:49;;;;;;;10.23;3.80;;;13.90;99.90;;;;;;5055136;28;20021;-49
2023/08/31 02:34:14;;;;;;;10.43;4.30;;;13.90;99.90;;;;;;5073324;28;20027;-48
2023/08/31 02:36:40;;;;;;;8.45;4.03;;;14.00;99.90;;;;;;5055408;28;20047;-46
2023/08/31 02:39:06;;;;;;;5.30;4.15;;;13.90;99.90;;;;;;5055230;28;20052;-50
2023/08/31 02:41:31;;;;;;;7.93;4.38;;;13.90;99.90;;;;;;5054956;28;20399;-47
2023/08/31 02:43:57;;;;;;;5.32;4.25;;;13.90;99.90;;;;;;5055047;28;20298;-47
2023/08/31 02:46:23;;;;;;;4.63;4.20;;;13.90;99.90;;;;;;5055092;28;20106;-47
2023/08/31 02:48:49;;;;;;;8.18;4.05;;;13.90;99.90;;;;;;5054160;28;20035;-51
2023/08/31 02:51:15;;;;;;;9.77;5.07;;;13.90;99.90;;;;;;5054821;28;20017;-49
2023/08/31 02:53:40;;;;;;;4.95;3.85;;;13.90;99.90;;;;;;5054935;28;20021;-47
2023/08/31 02:56:07;;;;;;;6.00;5.32;;;14.00;99.90;;;;;;5055084;28;20029;-51
2023/08/31 02:58:32;;;;;;;5.78;3.97;;;14.00;99.90;;;;;;5054654;28;20052;-48
2023/08/31 03:01:10;;;;;;;6.57;3.92;;;14.00;99.90;;;;;;5054655;28;20024;-47
2023/08/31 03:03:37;;;;;;;6.82;4.10;;;14.00;99.90;;;;;;5072665;28;20060;-47
2023/08/31 03:06:02;;;;;;;6.88;3.72;;;14.00;99.90;;;;;;5054881;28;20036;-45
2023/08/31 03:08:28;;;;;;;4.05;3.72;;;14.00;99.90;;;;;;5054104;28;20020;-50
2023/08/31 03:10:56;;;;;;;3.83;3.53;;;14.00;99.90;;;;;;5054339;28;20032;-50
2023/08/31 03:13:22;;;;;;;4.78;3.80;;;14.10;99.90;;;;;;5021681;28;20502;-49
2023/08/31 03:15:47;;;;;;;10.00;4.25;;;14.10;99.90;;;;;;5072438;28;20060;-51
2023/08/31 03:18:13;;;;;;;8.60;3.67;;;14.10;99.90;;;;;;5037711;28;20069;-53
2023/08/31 03:20:38;;;;;;;7.82;3.60;;;14.10;99.90;;;;;;5054173;28;20033;-47
2023/08/31 03:23:04;;;;;;;6.85;3.83;;;14.10;99.90;;;;;;5054036;28;20033;-51
2023/08/31 03:25:29;;;;;;;7.80;4.18;;;14.10;99.90;;;;;;5054046;28;20214;-53
2023/08/31 03:27:55;;;;;;;6.15;4.97;;;14.10;99.90;;;;;;5054118;28;20036;-48
2023/08/31 03:30:20;;;;;;;10.05;5.20;;;14.00;99.90;;;;;;5054188;28;20250;-49
2023/08/31 03:32:46;;;;;;;6.90;4.43;;;14.00;99.90;;;;;;5037620;28;20025;-51
2023/08/31 03:35:12;;;;;;;5.95;4.53;;;13.90;99.90;;;;;;5054058;28;20031;-46
2023/08/31 03:37:37;;;;;;;9.93;5.82;;;13.80;99.90;;;;;;5053952;28;20028;-47
2023/08/31 03:40:06;;;;;;;7.40;5.10;;;13.70;99.90;;;;;;5053966;28;20119;-47
2023/08/31 03:42:31;;;;;;;8.25;5.47;;;13.60;99.90;;;;;;5037733;28;20109;-47
2023/08/31 03:44:57;;;;;;;11.80;5.32;;;13.50;99.90;;;;;;5053759;28;20119;-47
2023/08/31 03:47:22;;;;;;;8.82;5.18;;;13.40;99.90;;;;;;5053920;28;20028;-47
2023/08/31 03:49:48;;;;;;;6.70;5.50;;;13.40;99.90;;;;;;5053816;28;20032;-47
2023/08/31 03:52:13;;;;;;;8.32;5.13;;;13.30;99.90;;;;;;5053821;28;20020;-50
2023/08/31 03:54:39;;;;;;;5.95;5.35;;;13.20;99.90;;;;;;5054111;28;20400;-47
2023/08/31 03:57:04;;;;;;;8.23;5.97;;;13.20;99.90;;;;;;5053779;28;20498;-48
2023/08/31 03:59:30;;;;;;;8.38;5.53;;;13.20;99.90;;;;;;5053338;28;20475;-47
2023/08/31 04:01:56;;;;;;;6.88;5.32;;;13.20;99.90;;;;;;5053770;28;20523;-47
2023/08/31 04:04:21;;;;;;;7.43;5.35;;;13.10;99.90;;;;;;5053987;28;20381;-48
2023/08/31 04:06:47;;;;;;;8.85;5.70;;;13.10;99.90;;;;;;5053503;28;20028;-49
2023/08/31 04:09:12;;;;;;;7.18;5.50;;;13.00;99.90;;;;;;5053782;28;20048;-50
2023/08/31 04:11:38;;;;;;;12.00;5.30;;;12.90;99.90;;;;;;5053396;28;20017;-51
2023/08/31 04:14:03;;;;;;;9.75;5.63;;;12.90;99.90;;;;;;5053445;28;20052;-47
2023/08/31 04:16:29;;;;;;;14.98;5.82;;;13.00;99.90;;;;;;5053607;28;20021;-53
2023/08/31 04:18:57;;;;;;;16.08;5.95;;;13.00;99.90;;;;;;5053401;28;20039;-48
2023/08/31 04:21:23;;;;;;;8.27;5.55;;;12.90;99.90;;;;;;5053255;28;20289;-50
2023/08/31 04:23:48;;;;;;;16.27;5.80;;;12.90;99.90;;;;;;5053402;28;20456;-48
2023/08/31 04:26:14;;;;;;;6.32;5.60;;;12.80;99.90;;;;;;5053198;28;20052;-46
2023/08/31 04:28:43;;;;;;;10.32;6.80;;;12.80;99.90;;;;;;5053505;28;20553;-47
2023/08/31 04:31:09;;;;;;;8.68;5.85;;;12.80;99.90;;;;;;5053117;28;20395;-52
2023/08/31 04:33:37;;;;;;;9.05;7.10;;;12.80;99.90;;;;;;5053306;28;20021;-47
2023/08/31 04:36:04;;;;;;;8.43;6.57;;;12.80;99.90;;;;;;5053250;28;20028;-48
2023/08/31 04:38:31;;;;;;;10.10;6.88;;;12.70;99.90;;;;;;5053263;28;20032;-51
2023/08/31 04:41:00;;;;;;;12.02;7.95;;;12.80;99.90;;;;;;5052971;28;20028;-52
2023/08/31 04:43:26;;;;;;;14.30;7.57;;;12.70;99.90;;;;;;5053133;28;20024;-52
2023/08/31 04:45:53;;;;;;;9.63;6.82;;;12.70;99.90;;;;;;5053059;28;20034;-50
2023/08/31 04:48:18;;;;;;;7.85;6.97;;;12.70;99.90;;;;;;5053036;28;20035;-48
2023/08/31 04:50:44;;;;;;;11.80;7.72;;;12.70;99.90;;;;;;5053011;28;20107;-48
2023/08/31 04:53:09;;;;;;;10.70;8.25;;;12.80;99.90;;;;;;5053056;28;20021;-48
2023/08/31 04:55:35;;;;;;;10.23;7.22;;;12.70;99.90;;;;;;5071202;28;20090;-53
2023/08/31 04:58:00;;;;;;;14.30;7.43;;;12.70;99.90;;;;;;5053104;28;20021;-54
2023/08/31 05:00:26;;;;;;;10.07;7.70;;;12.60;99.90;;;;;;5036414;28;20024;-48
2023/08/31 05:02:52;;;;;;;10.57;7.78;;;12.60;99.90;;;;;;5052829;28;20024;-50
2023/08/31 05:05:18;;;;;;;15.70;8.50;;;12.60;99.90;;;;;;5052863;28;20036;-50
2023/08/31 05:07:44;;;;;;;12.80;8.43;;;12.60;99.90;;;;;;5037826;23;20034;-49
2023/08/31 05:10:09;;;;;;;22.63;10.40;;;12.50;99.90;;;;;;5011006;28;20100;-51
2023/08/31 05:12:35;;;;;;;13.88;8.50;;;12.50;99.90;;;;;;5011391;28;20049;-50
2023/08/31 05:15:02;;;;;;;14.52;9.95;;;12.60;99.90;;;;;;5013747;28;20026;-45
2023/08/31 05:17:28;;;;;;;18.58;10.77;;;12.60;99.90;;;;;;5013623;28;20076;-46
2023/08/31 05:19:53;;;;;;;12.43;9.20;;;12.60;99.90;;;;;;5013519;28;20026;-46
2023/08/31 05:22:19;;;;;;;15.30;9.65;;;12.60;99.90;;;;;;5014772;28;20026;-46
2023/08/31 05:24:44;;;;;;;11.75;8.75;;;12.60;99.90;;;;;;5013497;28;20117;-46
2023/08/31 05:27:10;;;;;;;10.27;8.10;;;12.70;99.90;;;;;;5013168;28;20030;-46
2023/08/31 05:29:35;;;;;;;9.88;8.88;;;12.70;99.90;;;;;;5013416;28;20026;-53
2023/08/31 05:32:02;;;;;;;14.25;8.70;;;12.80;99.90;;;;;;5013178;28;20022;-46
2023/08/31 05:34:28;;;;;;;12.50;8.63;;;12.90;99.90;;;;;;5013418;28;20026;-48
2023/08/31 05:36:53;;;;;;;13.57;9.00;;;13.00;99.90;;;;;;5013199;28;20034;-42
2023/08/31 05:39:19;;;;;;;11.00;8.02;;;13.10;99.90;;;;;;5013024;28;20029;-49
2023/08/31 05:41:44;;;;;;;12.55;8.07;;;13.20;99.90;;;;;;5012754;28;20072;-48
2023/08/31 05:44:10;;;;;;;10.90;7.82;;;13.30;99.90;;;;;;5012971;28;20030;-48
2023/08/31 05:46:36;;;;;;;14.00;8.95;;;13.40;99.90;;;;;;5012924;28;20034;-49
2023/08/31 05:49:02;;;;;;;14.90;7.90;;;13.50;99.90;;;;;;5012872;28;20048;-48
2023/08/31 05:51:27;;;;;;;11.00;8.55;;;13.60;99.90;;;;;;5012432;28;20080;-46
2023/08/31 05:53:53;;;;;;;13.98;9.10;;;13.60;99.90;;;;;;5012867;28;20029;-43
2023/08/31 05:56:19;;;;;;;11.23;7.68;;;13.70;99.90;;;;;;5012676;28;20561;-49
2023/08/31 05:58:45;;;;;;;10.05;7.43;;;13.80;99.90;;;;;;5013060;28;20049;-48
2023/08/31 06:01:11;;;;;;;11.57;7.78;;;13.80;99.90;;;;;;5012508;28;20029;-50
2023/08/31 06:03:36;;;;;;;12.65;7.55;;;13.90;99.90;;;;;;5012693;28;20497;-45
2023/08/31 06:06:03;;;;;;;14.20;7.60;;;14.00;99.90;;;;;;5012444;28;20026;-45
2023/08/31 06:08:30;;;;;;;9.60;6.53;;;14.10;99.90;;;;;;5012374;28;20448;-46
2023/08/31 06:10:56;;;;;;;10.02;7.28;;;14.20;99.90;;;;;;5012539;28;20385;-46
2023/08/31 06:13:21;;;;;;;7.78;6.43;;;14.40;99.90;;;;;;5012467;28;20030;-47
2023/08/31 06:15:47;;;;;;;12.20;6.30;;;14.50;99.90;;;;;;5012529;28;20077;-48
2023/08/31 06:18:13;;;;;;;10.63;5.68;;;14.60;99.90;;;;;;5012289;28;20064;-47
2023/08/31 06:20:39;;;;;;;9.38;5.43;;;14.80;99.90;;;;;;5012350;28;20026;-46
2023/08/31 06:23:05;;;;;;;12.43;6.03;;;14.80;99.90;;;;;;5011935;28;20037;-44
2023/08/31 06:25:31;;;;;;;7.65;4.53;;;15.00;99.90;;;;;;5012394;28;20026;-47
2023/08/31 06:27:57;;;;;;;5.07;4.20;;;15.10;99.90;;;;;;5012203;28;20026;-47
2023/08/31 06:30:23;;;;;;;6.25;4.32;;;15.30;99.90;;;;;;5012226;28;20389;-47
2023/08/31 06:32:50;;;;;;;5.25;4.20;;;15.50;99.90;;;;;;5012010;28;20026;-46
2023/08/31 06:35:15;;;;;;;5.55;4.43;;;15.60;99.90;;;;;;5012116;28;20029;-46
2023/08/31 06:37:41;;;;;;;5.90;4.35;;;15.60;99.90;;;;;;5011920;28;20034;-46
2023/08/31 06:40:08;;;;;;;8.00;4.20;;;15.50;99.90;;;;;;5011916;28;20026;-47
2023/08/31 06:42:37;;;;;;;6.57;3.95;;;15.60;99.90;;;;;;5011766;28;20026;-47
2023/08/31 06:45:05;;;;;;;8.35;3.85;;;15.80;99.90;;;;;;5011758;28;20060;-46
2023/08/31 06:47:30;;;;;;;4.65;3.75;;;16.30;99.90;;;;;;5011860;28;20025;-49
2023/08/31 06:49:57;;;;;;;7.72;3.17;;;16.80;99.90;;;;;;5011678;28;20386;-46
2023/08/31 06:52:23;;;;;;;5.28;3.17;;;17.30;99.90;;;;;;5011357;28;20037;-46
2023/08/31 06:54:49;;;;;;;11.02;3.30;;;17.70;99.90;;;;;;5011551;28;20091;-47
2023/08/31 06:57:15;;;;;;;14.98;3.60;;;18.00;99.90;;;;;;5011517;28;20026;-47
2023/08/31 06:59:40;;;;;;;4.97;3.00;;;18.80;99.90;;;;;;5012778;28;20029;-47
2023/08/31 07:02:06;;;;;;;5.00;3.03;;;19.70;99.90;;;;;;5011299;28;20061;-46
2023/08/31 07:04:31;;;;;;;8.82;3.47;;;20.40;99.90;;;;;;5011496;28;20032;-48
2023/08/31 07:06:57;;;;;;;4.03;2.92;;;20.00;99.90;;;;;;5010834;28;20033;-46
2023/08/31 07:09:22;;;;;;;6.75;2.92;;;19.30;99.90;;;;;;5011349;28;20026;-46
2023/08/31 07:11:48;;;;;;;4.43;2.55;;;18.60;99.90;;;;;;5011420;28;20018;-48
2023/08/31 07:14:13;;;;;;;5.25;2.70;;;17.70;99.90;;;;;;5001819;28;20405;-47
2023/08/31 07:16:39;;;;;;;9.35;3.58;;;17.30;99.90;;;;;;5011229;28;20045;-46
2023/08/31 07:19:04;;;;;;;3.05;2.53;;;17.10;99.90;;;;;;5011272;28;20080;-46
2023/08/31 07:21:30;;;;;;;7.97;2.70;;;17.80;99.90;;;;;;5010284;28;20026;-46
2023/08/31 07:23:57;;;;;;;6.55;2.88;;;18.80;99.90;;;;;;5010885;28;20490;-50
2023/08/31 07:26:22;;;;;;;6.80;2.50;;;19.30;99.90;;;;;;5010793;28;20029;-46
2023/08/31 07:28:48;;;;;;;4.82;2.63;;;19.20;99.90;;;;;;4994716;28;20026;-48
2023/08/31 07:31:14;;;;;;;7.47;2.47;;;19.10;99.90;;;;;;4974930;28;20490;-50
2023/08/31 07:33:39;;;;;;;6.32;2.85;;;19.40;99.90;;;;;;4991469;28;20022;-46
2023/08/31 07:36:06;;;;;;;5.00;2.08;;;20.20;99.90;;;;;;4992417;28;20057;-47
2023/08/31 07:38:32;;;;;;;3.92;2.53;;;20.90;99.90;;;;;;4992909;28;20455;-47
2023/08/31 07:40:59;;;;;;;3.47;1.98;;;21.50;99.90;;;;;;4992535;28;20117;-47
2023/08/31 07:43:25;;;;;;;4.68;1.95;;;22.00;99.90;;;;;;4975118;28;20385;-47
2023/08/31 07:45:53;;;;;;;6.70;2.00;;;22.50;99.90;;;;;;4991105;28;20411;-46
2023/08/31 07:48:18;;;;;;;4.25;1.90;;;21.90;99.90;;;;;;4991107;28;20504;-49
2023/08/31 07:50:44;;;;;;;4.35;2.35;;;21.50;99.90;;;;;;4992476;28;20022;-46
2023/08/31 07:53:10;;;;;;;5.93;2.30;;;21.70;99.90;;;;;;4974631;28;20029;-46
2023/08/31 07:55:36;;;;;;;5.15;2.67;;;22.00;99.90;;;;;;4992112;28;20034;-47
2023/08/31 07:58:01;;;;;;;4.70;1.70;;;22.50;99.90;;;;;;4990685;28;20030;-46
2023/08/31 08:00:27;;;;;;;4.13;1.77;;;23.20;99.90;;;;;;4974813;28;20026;-51
2023/08/31 08:02:53;;;;;;;7.32;2.20;;;23.10;99.90;;;;;;4992222;28;20402;-47
2023/08/31 08:05:18;;;;;;;7.13;2.30;;;22.10;99.90;;;;;;4990944;28;20498;-46
2023/08/31 08:07:44;;;;;;;5.45;2.67;;;21.60;99.90;;;;;;4990838;28;20030;-47
2023/08/31 08:10:11;;;;;;;4.38;1.63;;;21.10;99.90;;;;;;4990796;28;20022;-46
2023/08/31 08:12:38;;;;;;;8.88;2.50;;;20.90;99.90;;;;;;4990711;28;20076;-46
2023/08/31 08:15:04;;;;;;;4.97;2.30;;;20.50;99.90;;;;;;4990555;28;20023;-44
2023/08/31 08:17:29;;;;;;;5.68;2.38;;;20.10;99.90;;;;;;4990635;28;20038;-46
2023/08/31 08:19:55;;;;;;;5.78;2.30;;;20.10;99.90;;;;;;4990802;28;20514;-46
2023/08/31 08:22:20;;;;;;;6.45;2.05;;;19.90;99.90;;;;;;4990568;28;20026;-46
2023/08/31 08:24:46;;;;;;;4.85;1.70;;;19.80;99.90;;;;;;4992194;28;20053;-49
2023/08/31 08:27:12;;;;;;;4.10;1.77;;;19.70;99.90;;;;;;4990637;28;20034;-51
2023/08/31 08:29:37;;;;;;;4.90;2.25;;;19.50;99.90;;;;;;4995601;28;20117;-49
2023/08/31 08:32:03;;;;;;;3.88;2.30;;;19.60;99.90;;;;;;5010904;28;20026;-47
2023/08/31 08:34:29;;;;;;;3.58;1.75;;;20.00;99.90;;;;;;5010953;28;20050;-48
2023/08/31 08:36:54;;;;;;;4.28;1.80;;;20.70;99.90;;;;;;5008496;28;20029;-52
2023/08/31 08:39:20;;;;;;;3.70;1.88;;;20.60;99.90;;;;;;5004860;28;20105;-47
2023/08/31 08:41:47;;;;;;;4.10;1.92;;;20.20;99.90;;;;;;5000998;28;20055;-49
2023/08/31 08:44:16;;;;;;;3.95;1.63;;;20.00;99.90;;;;;;5011029;28;20377;-45
2023/08/31 08:46:43;;;;;;;3.47;1.83;;;19.70;99.90;;;;;;4994141;28;20088;-48
2023/08/31 08:49:10;;;;;;;3.17;1.45;;;19.40;99.90;;;;;;4997637;28;20076;-47
2023/08/31 08:51:36;;;;;;;5.88;1.95;;;19.10;99.90;;;;;;5009898;28;20026;-44
2023/08/31 08:54:03;;;;;;;4.10;1.65;;;18.80;99.90;;;;;;4997406;28;20154;-47
2023/08/31 08:56:28;;;;;;;6.65;2.10;;;18.60;99.90;;;;;;4994001;28;20034;-48
2023/08/31 08:58:54;;;;;;;4.10;1.77;;;18.60;99.90;;;;;;5006588;28;20037;-46
2023/08/31 09:01:22;;;;;;;8.40;2.00;;;18.70;99.90;;;;;;5013443;28;20038;-46
2023/08/31 09:03:49;;;;;;;2.90;1.40;;;18.90;99.90;;;;;;5013985;28;20401;-47
2023/08/31 09:06:15;;;;;;;3.17;1.42;;;18.60;99.90;;;;;;5013330;28;20042;-44
2023/08/31 09:08:41;;;;;;;3.25;2.05;;;18.50;99.90;;;;;;5011235;28;20504;-47
2023/08/31 09:11:07;;;;;;;3.00;2.22;;;18.30;99.90;;;;;;5013296;28;20076;-51
2023/08/31 09:13:33;;;;;;;2.15;1.75;;;18.30;99.90;;;;;;4996195;28;20437;-46
2023/08/31 09:15:59;;;;;;;6.75;2.95;;;18.20;99.90;;;;;;4995143;28;20057;-46
2023/08/31 09:18:25;;;;;;;4.72;1.70;;;18.30;99.90;;;;;;5012413;28;20025;-47
2023/08/31 09:20:52;;;;;;;4.90;1.77;;;18.40;99.90;;;;;;5013307;28;20037;-46
2023/08/31 09:23:18;;;;;;;4.63;1.77;;;18.30;99.90;;;;;;5014562;28;20113;-46
2023/08/31 09:25:53;;;;;;;5.07;1.80;;;18.20;99.90;;;;;;5013590;28;20553;-48
2023/08/31 09:28:22;;;;;;;;;;;18.30;99.90;;;;;;5014168;28;20078;-46
2023/08/31 09:30:49;;;;;;;5.97;1.88;;;18.50;99.90;;;;;;5014666;28;19912;-46
2023/08/31 09:33:17;;;;;;;2.60;1.80;;;18.40;99.90;;;;;;5013360;28;20026;-46
2023/08/31 09:35:54;;;;;;;3.55;1.80;;;18.60;99.90;;;;;;5014852;28;20056;-50
2023/08/31 09:38:20;;;;;;;5.00;1.70;;;18.80;99.90;;;;;;4997222;28;20469;-45
2023/08/31 09:40:45;;;;;;;4.25;1.67;;;19.00;99.90;;;;;;4994916;28;20025;-48
2023/08/31 09:43:11;;;;;;;4.30;1.70;;;19.40;99.90;;;;;;4994588;28;20038;-48
2023/08/31 09:45:38;;;;;;;9.85;1.60;;;19.70;99.90;;;;;;4993035;28;20111;-49
2023/08/31 09:48:05;;;;;;;10.02;2.60;;;19.80;99.90;;;;;;4993560;28;20027;-51
2023/08/31 09:50:33;;;;;;;4.80;2.08;;;19.80;99.90;;;;;;4993297;28;20062;-48
2023/08/31 09:53:03;;;;;;;4.60;1.70;;;19.70;99.90;;;;;;4977405;28;20486;-48
2023/08/31 09:55:30;;;;;;;4.85;1.83;;;19.60;99.90;;;;;;4993425;28;20033;-48
2023/08/31 09:57:58;;;;;;;3.40;2.25;;;19.40;99.90;;;;;;5008196;28;20040;-46
2023/08/31 10:00:26;;;;;;;3.97;1.88;;;19.30;99.90;;;;;;5014362;28;20034;-47
2023/08/31 10:03:01;;;;;;;3.75;1.63;;;19.50;99.90;;;;;;5007364;28;20031;-48
2023/08/31 10:05:26;;;;;;;;;;;19.90;99.90;;;;;;5014342;28;20026;-46
2023/08/31 10:07:52;;;;;;;5.05;4.20;;;20.10;99.90;;;;;;5011084;28;20376;-49
2023/08/31 10:10:18;;;;;;;9.57;5.50;;;20.20;99.90;;;;;;4993140;28;20062;-49
2023/08/31 10:12:45;;;;;;;4.40;2.70;;;20.50;99.90;;;;;;4993038;28;20034;-46
2023/08/31 10:15:12;;;;;;;2.72;1.92;;;20.70;99.90;;;;;;4976879;28;20371;-47
2023/08/31 10:17:39;;;;;;;6.45;2.00;;;20.80;99.90;;;;;;4992795;28;20030;-45
2023/08/31 10:20:09;;;;;;;5.38;1.60;;;20.70;99.90;;;;;;4995924;28;20105;-47
2023/08/31 10:22:35;;;;;;;9.63;2.13;;;20.40;99.90;;;;;;5009390;28;20037;-45
2023/08/31 10:25:06;;;;;;;3.73;1.80;;;20.10;99.90;;;;;;4991793;28;20032;-46
2023/08/31 10:27:51;;;;;;;3.33;1.40;;;20.10;99.90;;;;;;5013993;28;20026;-48
2023/08/31 10:30:23;;;;;;;3.28;1.67;;;20.30;99.90;;;;;;5012161;28;20379;-47
2023/08/31 10:33:22;;;;;;;5.57;1.52;;;20.60;99.90;;;;;;4999658;28;20055;-52
2023/08/31 10:35:48;;;;;;;4.43;1.98;;;20.40;99.90;;;;;;5005982;28;20037;-47
2023/08/31 10:38:31;;;;;;;5.50;1.75;;;20.30;99.90;;;;;;5003996;28;20030;-50
2023/08/31 10:41:19;;;;;;;8.40;2.03;;;20.10;99.90;;;;;;5012086;28;20029;-49
2023/08/31 10:43:52;;;;;;;4.28;2.38;;;19.90;99.90;;;;;;4997364;28;20041;-51
2023/08/31 10:46:35;;;;;;;3.97;1.98;;;19.90;99.90;;;;;;5006137;28;20030;-47
2023/08/31 10:49:10;;;;;;;3.50;1.42;;;19.80;99.90;;;;;;5011587;28;20026;-49
2023/08/31 10:51:42;;;;;;;3.50;1.52;;;19.70;99.90;;;;;;4997472;28;20069;-47
2023/08/31 10:54:18;;;;;;;3.25;1.52;;;19.70;99.90;;;;;;5008232;28;20029;-51
2023/08/31 10:57:08;;;;;;;5.40;1.58;;;19.60;99.90;;;;;;5011306;28;20030;-47
2023/08/31 10:59:54;;;;;;;3.20;1.67;;;19.50;99.90;;;;;;4992860;28;20041;-49
2023/08/31 11:02:33;;;;;;;4.63;1.52;;;19.40;99.90;;;;;;5000258;28;20026;-48
2023/08/31 11:05:18;;;;;;;1.92;1.70;;;19.20;99.90;;;;;;5011217;28;20026;-49
2023/08/31 11:07:49;;;;;;;1.92;1.63;;;19.10;99.90;;;;;;5013106;28;20038;-48
2023/08/31 11:10:22;;;;;;;3.15;1.75;;;19.10;99.90;;;;;;5010224;28;20489;-48
2023/08/31 11:12:49;;;;;;;13.73;8.52;;;19.20;99.90;;;;;;5000830;28;20026;-51
2023/08/31 11:15:20;;;;;;;8.38;4.18;;;19.20;99.90;;;;;;4991517;28;20065;-50
2023/08/31 11:17:47;;;;;;;8.77;4.43;;;19.30;99.90;;;;;;5009809;28;20050;-51
2023/08/31 11:20:17;;;;;;;1.70;1.48;;;19.20;99.90;;;;;;5011446;28;20061;-48
2023/08/31 11:22:45;;;;;;;3.05;1.60;;;19.20;99.90;;;;;;5011210;28;20026;-52
2023/08/31 11:25:13;;;;;;;3.45;1.80;;;19.20;99.90;;;;;;5011327;28;20421;-52
2023/08/31 11:27:39;;;;;;;2.03;1.50;;;19.20;99.90;;;;;;5011296;28;20022;-54
2023/08/31 11:30:15;;;;;;;3.67;1.63;;;19.20;99.90;;;;;;4991981;28;20049;-51
2023/08/31 11:32:45;;;;;;;3.85;1.70;;;19.30;99.90;;;;;;5005311;28;20033;-51
2023/08/31 11:35:11;;;;;;;2.72;1.60;;;19.40;99.90;;;;;;4993640;28;20026;-52
2023/08/31 11:37:37;;;;;;;6.03;1.67;;;19.60;99.90;;;;;;5009760;28;20512;-48
2023/08/31 11:40:05;;;;;;;7.68;1.65;;;19.80;99.90;;;;;;5012956;28;20018;-46
2023/08/31 11:42:31;;;;;;;3.65;1.33;;;19.90;99.90;;;;;;4994497;28;20033;-45
2023/08/31 11:44:57;;;;;;;1.75;1.58;;;19.80;99.90;;;;;;5011305;28;20501;-46
2023/08/31 11:47:24;;;;;;;3.05;1.65;;;19.80;99.90;;;;;;4993866;28;20486;-47
2023/08/31 11:49:50;;;;;;;2.97;1.63;;;19.70;99.90;;;;;;4991511;28;20137;-53
2023/08/31 11:52:17;;;;;;;2.25;1.42;;;19.60;99.90;;;;;;4975041;28;20494;-46
2023/08/31 11:54:43;;;;;;;2.50;1.40;;;20.00;99.90;;;;;;4992558;28;20105;-48
2023/08/31 11:57:10;;;;;;;2.90;1.30;;;19.50;99.90;;;;;;4992386;28;20030;-49
2023/08/31 11:59:37;;;;;;;2.60;1.60;;;19.50;99.90;;;;;;4992325;28;20053;-46
2023/08/31 12:02:07;;;;;;;3.00;1.30;;;19.40;99.90;;;;;;4990988;28;20399;-45
2023/08/31 12:04:32;;;;;;;2.10;1.27;;;19.50;99.90;;;;;;4992241;28;20052;-50
2023/08/31 12:07:04;;;;;;;1.83;1.60;;;19.60;99.90;;;;;;4990745;28;20030;-47
2023/08/31 12:09:30;;;;;;;3.33;1.95;;;19.80;99.90;;;;;;4974978;28;20022;-50
2023/08/31 12:11:56;;;;;;;2.58;1.40;;;20.00;98.30;;;;;;4990614;28;20050;-47
2023/08/31 12:14:26;;;;;;;2.95;1.50;;;20.10;97.90;;;;;;4991161;28;20069;-48
2023/08/31 12:16:59;;;;;;;3.58;1.80;;;20.10;97.70;;;;;;4992215;28;20034;-44
2023/08/31 12:19:28;;;;;;;46.65;30.00;;;20.10;97.70;;;;;;5007118;28;20026;-50
2023/08/31 12:21:54;;;;;;;7.40;4.32;;;20.10;97.00;;;;;;4990394;28;20026;-43
2023/08/31 12:24:22;;;;;;;6.75;4.38;;;20.20;97.30;;;;;;4974730;28;20033;-45
2023/08/31 12:26:47;;;;;;;7.53;1.30;;;20.10;97.80;;;;;;4990717;28;20425;-44
2023/08/31 12:29:13;;;;;;;3.55;1.65;;;20.10;99.50;;;;;;4991112;28;20106;-45
2023/08/31 12:31:39;;;;;;;2.20;1.67;;;20.20;97.20;;;;;;4990526;28;20026;-43
2023/08/31 12:34:06;;;;;;;5.28;1.50;;;20.30;97.70;;;;;;4990800;28;20034;-46
2023/08/31 12:36:32;;;;;;;3.05;1.50;;;20.40;97.30;;;;;;4992000;28;20527;-42
2023/08/31 12:39:01;;;;;;;2.22;1.40;;;20.30;97.80;;;;;;5006888;28;20034;-43
2023/08/31 12:41:27;;;;;;;2.25;1.60;;;20.30;98.00;;;;;;4990408;28;20061;-45
2023/08/31 12:43:52;;;;;;;5.10;1.75;;;20.20;97.90;;;;;;4990489;28;20061;-43
2023/08/31 12:46:18;;;;;;;4.07;1.88;;;20.00;97.50;;;;;;4991889;28;20050;-43